sensor_id;sensor_type;location;lat;lon;timestamp;temperature;humidity
26505;DHT22;19493;48.042;7.584;2023-03-14T00:00:34;10.90;99.90
26505;DHT22;19493;48.042;7.584;2023-03-14T00:03:00;11.10;99.90
26505;DHT22;19493;48.042;7.584;2023-03-14T00:05:25;11.20;99.90
26505;DHT22;19493;48.042;7.584;2023-03-14T00:07:51;11.20;99.90
26505;DHT22;19493;48.042;7.584;2023-03-14T00:10:17;11.30;99.90
26505;DHT22;19493;48.042;7.584;2023-03-14T00:12:43;11.20;99.90
26505;DHT22;19493;48.042;7.584;2023-03-14T00:15:10;11.20;99.90
26505;DHT22;19493;48.042;7.584;2023-03-14T00:17:36;11.10;99.90
26505;DHT22;19493;48.042;7.584;2023-03-14T00:20:03;11.10;99.90
26505;DHT22;19493;48.042;7.584;2023-03-14T00:22:34;11.20;99.90
26505;DHT22;19493;48.042;7.584;2023-03-14T00:24:59;11.40;99.90
26505;DHT22;19493;48.042;7.584;2023-03-14T00:27:25;11.30;99.90
26505;DHT22;19493;48.042;7.584;2023-03-14T00:29:51;11.30;99.90
26505;DHT22;19493;48.042;7.584;2023-03-14T00:32:16;11.20;99.90
26505;DHT22;19493;48.042;7.584;2023-03-14T00:34:42;11.10;99.90
26505;DHT22;19493;48.042;7.584;2023-03-14T00:37:07;11.20;99.90
26505;DHT22;19493;48.042;7.584;2023-03-14T00:39:33;11.30;99.90
26505;DHT22;19493;48.042;7.584;2023-03-14T00:41:58;11.30;99.90
26505;DHT22;19493;48.042;7.584;2023-03-14T00:44:24;11.40;99.90
26505;DHT22;19493;48.042;7.584;2023-03-14T00:46:50;11.30;99.90
26505;DHT22;19493;48.042;7.584;2023-03-14T00:49:15;11.20;99.90
26505;DHT22;19493;48.042;7.584;2023-03-14T00:51:41;11.20;99.90
26505;DHT22;19493;48.042;7.584;2023-03-14T00:54:07;11.10;99.90
26505;DHT22;19493;48.042;7.584;2023-03-14T00:56:32;11.00;99.90
26505;DHT22;19493;48.042;7.584;2023-03-14T00:58:58;10.90;99.90
26505;DHT22;19493;48.042;7.584;2023-03-14T01:01:24;10.90;99.90
26505;DHT22;19493;48.042;7.584;2023-03-14T01:03:54;11.00;99.90
26505;DHT22;19493;48.042;7.584;2023-03-14T01:06:22;11.00;99.90
26505;DHT22;19493;48.042;7.584;2023-03-14T01:08:49;11.10;99.90
26505;DHT22;19493;48.042;7.584;2023-03-14T01:11:18;11.10;99.90
26505;DHT22;19493;48.042;7.584;2023-03-14T01:13:44;11.20;99.90
26505;DHT22;19493;48.042;7.584;2023-03-14T01:16:11;11.20;99.90
26505;DHT22;19493;48.042;7.584;2023-03-14T01:18:38;11.20;99.90
26505;DHT22;19493;48.042;7.584;2023-03-14T01:21:13;11.20;99.90
26505;DHT22;19493;48.042;7.584;2023-03-14T01:23:40;11.20;99.90
26505;DHT22;19493;48.042;7.584;2023-03-14T01:26:09;11.20;99.90
26505;DHT22;19493;48.042;7.584;2023-03-14T01:28:34;11.20;99.90
26505;DHT22;19493;48.042;7.584;2023-03-14T01:31:04;11.20;99.90
26505;DHT22;19493;48.042;7.584;2023-03-14T01:33:30;11.20;99.90
26505;DHT22;19493;48.042;7.584;2023-03-14T01:35:56;11.20;99.90
26505;DHT22;19493;48.042;7.584;2023-03-14T01:38:21;11.20;99.90
26505;DHT22;19493;48.042;7.584;2023-03-14T01:40:47;11.20;99.90
26505;DHT22;19493;48.042;7.584;2023-03-14T01:43:18;11.10;99.90
26505;DHT22;19493;48.042;7.584;2023-03-14T01:48:42;11.10;99.90
26505;DHT22;19493;48.042;7.584;2023-03-14T01:51:12;11.10;99.90
26505;DHT22;19493;48.042;7.584;2023-03-14T01:53:40;11.10;99.90
26505;DHT22;19493;48.042;7.584;2023-03-14T01:56:10;11.00;99.90
26505;DHT22;19493;48.042;7.584;2023-03-14T01:58:37;11.10;99.90
26505;DHT22;19493;48.042;7.584;2023-03-14T02:01:04;11.10;99.90
26505;DHT22;19493;48.042;7.584;2023-03-14T02:03:38;11.10;99.90
26505;DHT22;19493;48.042;7.584;2023-03-14T02:06:08;11.00;99.90
26505;DHT22;19493;48.042;7.584;2023-03-14T02:08:35;11.00;99.90
26505;DHT22;19493;48.042;7.584;2023-03-14T02:11:02;11.00;99.90
26505;DHT22;19493;48.042;7.584;2023-03-14T02:13:27;11.00;99.90
26505;DHT22;19493;48.042;7.584;2023-03-14T02:15:53;10.90;99.90
26505;DHT22;19493;48.042;7.584;2023-03-14T02:18:19;11.00;99.90
26505;DHT22;19493;48.042;7.584;2023-03-14T02:26:42;10.90;99.90
26505;DHT22;19493;48.042;7.584;2023-03-14T02:29:09;11.00;99.90
26505;DHT22;19493;48.042;7.584;2023-03-14T02:31:35;11.00;99.90
26505;DHT22;19493;48.042;7.584;2023-03-14T02:34:01;11.00;99.90
26505;DHT22;19493;48.042;7.584;2023-03-14T02:36:27;11.00;99.90
26505;DHT22;19493;48.042;7.584;2023-03-14T02:39:15;11.00;99.90
26505;DHT22;19493;48.042;7.584;2023-03-14T02:41:43;11.00;99.90
26505;DHT22;19493;48.042;7.584;2023-03-14T02:44:12;11.00;99.90
26505;DHT22;19493;48.042;7.584;2023-03-14T02:46:38;11.00;99.90
26505;DHT22;19493;48.042;7.584;2023-03-14T02:49:07;11.00;99.90
26505;DHT22;19493;48.042;7.584;2023-03-14T02:51:33;11.00;99.90
26505;DHT22;19493;48.042;7.584;2023-03-14T02:53:59;11.00;99.90
26505;DHT22;19493;48.042;7.584;2023-03-14T02:56:24;11.00;99.90
26505;DHT22;19493;48.042;7.584;2023-03-14T02:58:50;11.10;99.90
26505;DHT22;19493;48.042;7.584;2023-03-14T03:01:15;11.10;99.90
26505;DHT22;19493;48.042;7.584;2023-03-14T03:03:41;11.10;99.90
26505;DHT22;19493;48.042;7.584;2023-03-14T03:06:07;11.20;99.90
26505;DHT22;19493;48.042;7.584;2023-03-14T03:08:33;11.10;99.90
26505;DHT22;19493;48.042;7.584;2023-03-14T03:10:58;11.10;99.90
26505;DHT22;19493;48.042;7.584;2023-03-14T03:13:24;11.00;99.90
26505;DHT22;19493;48.042;7.584;2023-03-14T03:15:50;11.00;99.90
26505;DHT22;19493;48.042;7.584;2023-03-14T03:18:16;11.00;99.90
26505;DHT22;19493;48.042;7.584;2023-03-14T03:20:41;10.90;99.90
26505;DHT22;19493;48.042;7.584;2023-03-14T03:23:07;10.80;99.90
26505;DHT22;19493;48.042;7.584;2023-03-14T03:25:33;10.80;99.90
26505;DHT22;19493;48.042;7.584;2023-03-14T03:27:58;10.70;99.90
26505;DHT22;19493;48.042;7.584;2023-03-14T03:30:24;10.70;99.90
26505;DHT22;19493;48.042;7.584;2023-03-14T03:32:49;10.60;99.90
26505;DHT22;19493;48.042;7.584;2023-03-14T03:35:15;10.70;99.90
26505;DHT22;19493;48.042;7.584;2023-03-14T03:37:40;10.70;99.90
26505;DHT22;19493;48.042;7.584;2023-03-14T03:40:07;10.70;99.90
26505;DHT22;19493;48.042;7.584;2023-03-14T03:42:34;10.60;99.90
26505;DHT22;19493;48.042;7.584;2023-03-14T03:45:00;10.60;99.90
26505;DHT22;19493;48.042;7.584;2023-03-14T03:47:27;10.60;99.90
26505;DHT22;19493;48.042;7.584;2023-03-14T03:49:52;10.60;99.90
26505;DHT22;19493;48.042;7.584;2023-03-14T03:52:18;10.50;99.90
26505;DHT22;19493;48.042;7.584;2023-03-14T03:54:44;10.40;99.90
26505;DHT22;19493;48.042;7.584;2023-03-14T03:57:09;10.30;99.90
26505;DHT22;19493;48.042;7.584;2023-03-14T03:59:35;10.30;99.90
26505;DHT22;19493;48.042;7.584;2023-03-14T04:02:01;10.30;99.90
26505;DHT22;19493;48.042;7.584;2023-03-14T04:04:26;10.30;99.90
26505;DHT22;19493;48.042;7.584;2023-03-14T04:06:52;10.20;99.90
26505;DHT22;19493;48.042;7.584;2023-03-14T04:09:18;10.30;99.90
26505;DHT22;19493;48.042;7.584;2023-03-14T04:11:43;10.30;99.90
26505;DHT22;19493;48.042;7.584;2023-03-14T04:14:09;10.30;99.90
26505;DHT22;19493;48.042;7.584;2023-03-14T04:16:34;10.30;99.90
26505;DHT22;19493;48.042;7.584;2023-03-14T04:19:01;10.40;99.90
26505;DHT22;19493;48.042;7.584;2023-03-14T04:21:27;10.30;99.90
26505;DHT22;19493;48.042;7.584;2023-03-14T04:23:53;10.20;99.90
26505;DHT22;19493;48.042;7.584;2023-03-14T04:26:18;10.20;99.90
26505;DHT22;19493;48.042;7.584;2023-03-14T04:28:44;10.20;99.90
26505;DHT22;19493;48.042;7.584;2023-03-14T04:31:12;10.10;99.90
26505;DHT22;19493;48.042;7.584;2023-03-14T04:33:38;10.10;99.90
26505;DHT22;19493;48.042;7.584;2023-03-14T04:36:05;10.10;99.90
26505;DHT22;19493;48.042;7.584;2023-03-14T04:38:31;10.20;99.90
26505;DHT22;19493;48.042;7.584;2023-03-14T04:40:57;10.30;99.90
26505;DHT22;19493;48.042;7.584;2023-03-14T04:43:22;10.40;99.90
26505;DHT22;19493;48.042;7.584;2023-03-14T04:45:48;10.50;99.90
26505;DHT22;19493;48.042;7.584;2023-03-14T04:48:14;10.50;99.90
26505;DHT22;19493;48.042;7.584;2023-03-14T04:50:39;10.50;99.90
26505;DHT22;19493;48.042;7.584;2023-03-14T04:53:05;10.50;99.90
26505;DHT22;19493;48.042;7.584;2023-03-14T04:55:31;10.50;99.90
26505;DHT22;19493;48.042;7.584;2023-03-14T04:57:58;10.50;99.90
26505;DHT22;19493;48.042;7.584;2023-03-14T05:00:24;10.50;99.90
26505;DHT22;19493;48.042;7.584;2023-03-14T05:02:50;10.40;99.90
26505;DHT22;19493;48.042;7.584;2023-03-14T05:05:16;10.30;99.90
26505;DHT22;19493;48.042;7.584;2023-03-14T05:07:42;10.30;99.90
26505;DHT22;19493;48.042;7.584;2023-03-14T05:10:08;10.40;99.90
26505;DHT22;19493;48.042;7.584;2023-03-14T05:12:34;10.30;99.90
26505;DHT22;19493;48.042;7.584;2023-03-14T05:15:00;10.30;99.90
26505;DHT22;19493;48.042;7.584;2023-03-14T05:17:25;10.30;99.90
26505;DHT22;19493;48.042;7.584;2023-03-14T05:19:51;10.30;99.90
26505;DHT22;19493;48.042;7.584;2023-03-14T05:22:17;10.30;99.90
26505;DHT22;19493;48.042;7.584;2023-03-14T05:24:42;10.30;99.90
26505;DHT22;19493;48.042;7.584;2023-03-14T05:27:08;10.30;99.90
26505;DHT22;19493;48.042;7.584;2023-03-14T05:29:33;10.30;99.90
26505;DHT22;19493;48.042;7.584;2023-03-14T05:31:59;10.30;99.90
26505;DHT22;19493;48.042;7.584;2023-03-14T05:34:25;10.40;99.90
26505;DHT22;19493;48.042;7.584;2023-03-14T05:36:50;10.30;99.90
26505;DHT22;19493;48.042;7.584;2023-03-14T05:39:16;10.40;99.90
26505;DHT22;19493;48.042;7.584;2023-03-14T05:41:41;10.40;99.90
26505;DHT22;19493;48.042;7.584;2023-03-14T05:44:07;10.30;99.90
26505;DHT22;19493;48.042;7.584;2023-03-14T05:46:32;10.10;99.90
26505;DHT22;19493;48.042;7.584;2023-03-14T05:48:58;10.00;99.90
26505;DHT22;19493;48.042;7.584;2023-03-14T05:51:24;10.10;99.90
26505;DHT22;19493;48.042;7.584;2023-03-14T05:53:50;10.10;99.90
26505;DHT22;19493;48.042;7.584;2023-03-14T05:56:16;10.20;99.90
26505;DHT22;19493;48.042;7.584;2023-03-14T05:58:41;10.20;99.90
26505;DHT22;19493;48.042;7.584;2023-03-14T06:01:07;10.30;99.90
26505;DHT22;19493;48.042;7.584;2023-03-14T06:03:33;10.20;99.90
26505;DHT22;19493;48.042;7.584;2023-03-14T06:05:59;10.20;99.90
26505;DHT22;19493;48.042;7.584;2023-03-14T06:08:25;10.30;99.90
26505;DHT22;19493;48.042;7.584;2023-03-14T06:10:51;10.20;99.90
26505;DHT22;19493;48.042;7.584;2023-03-14T06:13:17;10.20;99.90
26505;DHT22;19493;48.042;7.584;2023-03-14T06:15:43;10.20;99.90
26505;DHT22;19493;48.042;7.584;2023-03-14T06:18:09;10.30;99.90
26505;DHT22;19493;48.042;7.584;2023-03-14T06:20:38;10.30;99.90
26505;DHT22;19493;48.042;7.584;2023-03-14T06:23:05;10.30;99.90
26505;DHT22;19493;48.042;7.584;2023-03-14T06:25:32;10.40;99.90
26505;DHT22;19493;48.042;7.584;2023-03-14T06:27:57;10.50;99.90
26505;DHT22;19493;48.042;7.584;2023-03-14T06:30:23;10.50;99.90
26505;DHT22;19493;48.042;7.584;2023-03-14T06:32:48;10.60;99.90
26505;DHT22;19493;48.042;7.584;2023-03-14T06:35:14;10.70;99.90
26505;DHT22;19493;48.042;7.584;2023-03-14T06:37:40;10.70;99.90
26505;DHT22;19493;48.042;7.584;2023-03-14T06:40:06;10.80;99.90
26505;DHT22;19493;48.042;7.584;2023-03-14T06:42:32;10.80;99.90
26505;DHT22;19493;48.042;7.584;2023-03-14T06:44:58;10.80;99.90
26505;DHT22;19493;48.042;7.584;2023-03-14T06:47:23;10.80;99.90
26505;DHT22;19493;48.042;7.584;2023-03-14T06:49:49;10.90;99.90
26505;DHT22;19493;48.042;7.584;2023-03-14T06:52:15;10.90;99.90
26505;DHT22;19493;48.042;7.584;2023-03-14T06:54:40;11.10;99.90
26505;DHT22;19493;48.042;7.584;2023-03-14T06:57:06;11.20;99.90
26505;DHT22;19493;48.042;7.584;2023-03-14T06:59:31;11.20;99.90
26505;DHT22;19493;48.042;7.584;2023-03-14T07:01:57;11.40;99.90
26505;DHT22;19493;48.042;7.584;2023-03-14T07:04:22;11.50;99.90
26505;DHT22;19493;48.042;7.584;2023-03-14T07:06:48;11.60;99.90
26505;DHT22;19493;48.042;7.584;2023-03-14T07:09:15;11.60;99.90
26505;DHT22;19493;48.042;7.584;2023-03-14T07:11:42;11.70;99.90
26505;DHT22;19493;48.042;7.584;2023-03-14T07:14:08;11.80;99.90
26505;DHT22;19493;48.042;7.584;2023-03-14T07:16:33;11.80;99.90
26505;DHT22;19493;48.042;7.584;2023-03-14T07:19:00;11.90;99.90
26505;DHT22;19493;48.042;7.584;2023-03-14T07:21:26;11.80;99.90
26505;DHT22;19493;48.042;7.584;2023-03-14T07:23:52;11.80;99.90
26505;DHT22;19493;48.042;7.584;2023-03-14T07:26:17;11.80;99.90
26505;DHT22;19493;48.042;7.584;2023-03-14T07:28:43;11.80;99.90
26505;DHT22;19493;48.042;7.584;2023-03-14T07:31:09;11.90;99.90
26505;DHT22;19493;48.042;7.584;2023-03-14T07:33:34;11.90;99.90
26505;DHT22;19493;48.042;7.584;2023-03-14T07:36:00;11.90;99.90
26505;DHT22;19493;48.042;7.584;2023-03-14T07:38:26;11.90;99.90
26505;DHT22;19493;48.042;7.584;2023-03-14T07:40:58;12.00;99.90
26505;DHT22;19493;48.042;7.584;2023-03-14T07:43:24;12.00;99.90
26505;DHT22;19493;48.042;7.584;2023-03-14T07:45:49;11.90;99.90
26505;DHT22;19493;48.042;7.584;2023-03-14T07:48:15;11.80;99.90
26505;DHT22;19493;48.042;7.584;2023-03-14T07:50:40;11.80;99.90
26505;DHT22;19493;48.042;7.584;2023-03-14T07:53:06;11.70;99.90
26505;DHT22;19493;48.042;7.584;2023-03-14T07:55:31;11.60;99.90
26505;DHT22;19493;48.042;7.584;2023-03-14T07:57:57;11.60;99.90
26505;DHT22;19493;48.042;7.584;2023-03-14T08:00:23;11.60;99.90
26505;DHT22;19493;48.042;7.584;2023-03-14T08:02:48;11.50;99.90
26505;DHT22;19493;48.042;7.584;2023-03-14T08:05:14;11.40;99.90
26505;DHT22;19493;48.042;7.584;2023-03-14T08:07:39;11.40;99.90
26505;DHT22;19493;48.042;7.584;2023-03-14T08:10:06;11.40;99.90
26505;DHT22;19493;48.042;7.584;2023-03-14T08:12:31;11.40;99.90
26505;DHT22;19493;48.042;7.584;2023-03-14T08:14:57;11.40;99.90
26505;DHT22;19493;48.042;7.584;2023-03-14T08:17:24;11.30;99.90
26505;DHT22;19493;48.042;7.584;2023-03-14T08:19:50;11.30;99.90
26505;DHT22;19493;48.042;7.584;2023-03-14T08:22:15;11.40;99.90
26505;DHT22;19493;48.042;7.584;2023-03-14T08:24:41;11.40;99.90
26505;DHT22;19493;48.042;7.584;2023-03-14T08:27:07;11.40;99.90
26505;DHT22;19493;48.042;7.584;2023-03-14T08:29:33;11.40;99.90
26505;DHT22;19493;48.042;7.584;2023-03-14T08:31:58;11.30;99.90
26505;DHT22;19493;48.042;7.584;2023-03-14T08:34:24;11.20;99.90
26505;DHT22;19493;48.042;7.584;2023-03-14T08:36:49;11.20;99.90
26505;DHT22;19493;48.042;7.584;2023-03-14T08:39:15;11.10;99.90
26505;DHT22;19493;48.042;7.584;2023-03-14T08:41:41;11.30;99.90
26505;DHT22;19493;48.042;7.584;2023-03-14T08:44:08;11.50;99.90
26505;DHT22;19493;48.042;7.584;2023-03-14T08:46:35;11.80;99.90
26505;DHT22;19493;48.042;7.584;2023-03-14T08:49:01;12.30;99.90
26505;DHT22;19493;48.042;7.584;2023-03-14T08:51:27;12.60;99.90
26505;DHT22;19493;48.042;7.584;2023-03-14T08:53:53;12.60;99.90
26505;DHT22;19493;48.042;7.584;2023-03-14T08:56:18;12.50;99.90
26505;DHT22;19493;48.042;7.584;2023-03-14T08:58:44;12.40;99.90
26505;DHT22;19493;48.042;7.584;2023-03-14T09:01:10;12.30;99.90
26505;DHT22;19493;48.042;7.584;2023-03-14T09:03:37;12.10;99.90
26505;DHT22;19493;48.042;7.584;2023-03-14T09:06:09;12.00;99.90
26505;DHT22;19493;48.042;7.584;2023-03-14T09:08:36;12.00;99.90
26505;DHT22;19493;48.042;7.584;2023-03-14T09:11:02;11.90;99.90
26505;DHT22;19493;48.042;7.584;2023-03-14T09:13:27;11.80;99.90
26505;DHT22;19493;48.042;7.584;2023-03-14T09:15:54;11.80;99.90
26505;DHT22;19493;48.042;7.584;2023-03-14T09:18:20;11.70;99.90
26505;DHT22;19493;48.042;7.584;2023-03-14T09:20:45;11.70;99.90
26505;DHT22;19493;48.042;7.584;2023-03-14T09:23:11;11.70;99.90
26505;DHT22;19493;48.042;7.584;2023-03-14T09:25:37;11.60;99.90
26505;DHT22;19493;48.042;7.584;2023-03-14T09:28:02;11.50;99.90
26505;DHT22;19493;48.042;7.584;2023-03-14T09:30:28;11.50;99.90
26505;DHT22;19493;48.042;7.584;2023-03-14T09:32:53;11.50;99.90
26505;DHT22;19493;48.042;7.584;2023-03-14T09:35:19;11.50;99.90
26505;DHT22;19493;48.042;7.584;2023-03-14T09:37:44;11.50;99.90
26505;DHT22;19493;48.042;7.584;2023-03-14T09:40:16;11.40;99.90
26505;DHT22;19493;48.042;7.584;2023-03-14T09:42:42;11.40;99.90
26505;DHT22;19493;48.042;7.584;2023-03-14T09:47:48;11.30;99.90
26505;DHT22;19493;48.042;7.584;2023-03-14T09:50:14;11.20;99.90
26505;DHT22;19493;48.042;7.584;2023-03-14T09:52:42;11.20;99.90
26505;DHT22;19493;48.042;7.584;2023-03-14T09:55:22;11.20;99.90
26505;DHT22;19493;48.042;7.584;2023-03-14T09:57:49;11.40;99.90
26505;DHT22;19493;48.042;7.584;2023-03-14T10:00:26;11.40;99.90
26505;DHT22;19493;48.042;7.584;2023-03-14T10:05:40;11.70;99.90
26505;DHT22;19493;48.042;7.584;2023-03-14T10:08:06;11.70;99.90
26505;DHT22;19493;48.042;7.584;2023-03-14T10:10:32;11.80;99.90
26505;DHT22;19493;48.042;7.584;2023-03-14T10:12:58;11.80;99.90
26505;DHT22;19493;48.042;7.584;2023-03-14T10:15:32;11.60;99.90
26505;DHT22;19493;48.042;7.584;2023-03-14T10:18:00;11.40;99.90
26505;DHT22;19493;48.042;7.584;2023-03-14T10:20:31;11.30;99.90
26505;DHT22;19493;48.042;7.584;2023-03-14T10:23:03;11.10;99.90
26505;DHT22;19493;48.042;7.584;2023-03-14T10:25:35;11.10;99.90
26505;DHT22;19493;48.042;7.584;2023-03-14T10:28:02;11.00;99.90
26505;DHT22;19493;48.042;7.584;2023-03-14T10:30:45;11.20;99.90
26505;DHT22;19493;48.042;7.584;2023-03-14T10:35:44;11.50;99.90
26505;DHT22;19493;48.042;7.584;2023-03-14T10:38:17;11.60;99.90
26505;DHT22;19493;48.042;7.584;2023-03-14T10:40:51;11.60;99.90
26505;DHT22;19493;48.042;7.584;2023-03-14T10:43:32;11.60;99.90
26505;DHT22;19493;48.042;7.584;2023-03-14T10:46:08;11.50;99.90
26505;DHT22;19493;48.042;7.584;2023-03-14T10:48:36;11.50;99.90
26505;DHT22;19493;48.042;7.584;2023-03-14T10:56:06;11.50;99.90
26505;DHT22;19493;48.042;7.584;2023-03-14T10:58:38;11.50;99.90
26505;DHT22;19493;48.042;7.584;2023-03-14T11:09:42;11.40;99.90
26505;DHT22;19493;48.042;7.584;2023-03-14T11:12:23;11.30;99.90
26505;DHT22;19493;48.042;7.584;2023-03-14T11:14:59;11.10;99.90
26505;DHT22;19493;48.042;7.584;2023-03-14T11:17:50;10.40;99.90
26505;DHT22;19493;48.042;7.584;2023-03-14T11:23:18;8.80;99.90
26505;DHT22;19493;48.042;7.584;2023-03-14T11:25:48;8.70;99.90
26505;DHT22;19493;48.042;7.584;2023-03-14T11:28:36;8.90;99.90
26505;DHT22;19493;48.042;7.584;2023-03-14T11:33:38;9.60;99.90
26505;DHT22;19493;48.042;7.584;2023-03-14T11:36:14;10.10;99.90
26505;DHT22;19493;48.042;7.584;2023-03-14T11:38:50;10.90;99.90
26505;DHT22;19493;48.042;7.584;2023-03-14T11:41:33;11.20;99.90
26505;DHT22;19493;48.042;7.584;2023-03-14T11:44:04;11.60;99.90
26505;DHT22;19493;48.042;7.584;2023-03-14T11:46:39;11.80;99.90
26505;DHT22;19493;48.042;7.584;2023-03-14T11:49:32;11.80;99.90
26505;DHT22;19493;48.042;7.584;2023-03-14T11:52:03;12.30;99.90
26505;DHT22;19493;48.042;7.584;2023-03-14T11:54:44;13.70;99.90
26505;DHT22;19493;48.042;7.584;2023-03-14T11:57:15;13.90;96.20
26505;DHT22;19493;48.042;7.584;2023-03-14T12:10:49;14.50;94.00
26505;DHT22;19493;48.042;7.584;2023-03-14T12:13:16;16.00;92.70
26505;DHT22;19493;48.042;7.584;2023-03-14T12:16:05;16.50;88.30
26505;DHT22;19493;48.042;7.584;2023-03-14T12:21:17;16.30;87.00
26505;DHT22;19493;48.042;7.584;2023-03-14T12:23:48;17.60;83.90
26505;DHT22;19493;48.042;7.584;2023-03-14T12:26:18;19.00;76.20
26505;DHT22;19493;48.042;7.584;2023-03-14T12:29:09;19.20;69.80
26505;DHT22;19493;48.042;7.584;2023-03-14T12:31:46;19.30;66.60
26505;DHT22;19493;48.042;7.584;2023-03-14T12:39:53;14.70;73.40
26505;DHT22;19493;48.042;7.584;2023-03-14T12:50:34;11.60;88.30
26505;DHT22;19493;48.042;7.584;2023-03-14T12:53:19;11.00;90.40
26505;DHT22;19493;48.042;7.584;2023-03-14T13:01:20;11.90;93.30
26505;DHT22;19493;48.042;7.584;2023-03-14T13:03:52;11.90;92.90
26505;DHT22;19493;48.042;7.584;2023-03-14T13:06:46;11.60;91.40
26505;DHT22;19493;48.042;7.584;2023-03-14T13:11:54;10.90;90.40
26505;DHT22;19493;48.042;7.584;2023-03-14T13:14:20;10.80;90.90
26505;DHT22;19493;48.042;7.584;2023-03-14T13:16:47;10.60;90.50
26505;DHT22;19493;48.042;7.584;2023-03-14T13:19:32;10.50;88.40
26505;DHT22;19493;48.042;7.584;2023-03-14T13:22:12;10.50;89.40
26505;DHT22;19493;48.042;7.584;2023-03-14T13:24:40;10.40;90.20
26505;DHT22;19493;48.042;7.584;2023-03-14T13:27:19;10.40;90.70
26505;DHT22;19493;48.042;7.584;2023-03-14T13:29:48;10.40;91.20
26505;DHT22;19493;48.042;7.584;2023-03-14T13:32:28;10.40;91.00
26505;DHT22;19493;48.042;7.584;2023-03-14T13:34:57;10.50;91.10
26505;DHT22;19493;48.042;7.584;2023-03-14T13:37:25;10.60;91.80
26505;DHT22;19493;48.042;7.584;2023-03-14T13:39:57;10.70;87.50
26505;DHT22;19493;48.042;7.584;2023-03-14T13:42:29;10.80;87.80
26505;DHT22;19493;48.042;7.584;2023-03-14T13:44:56;10.80;86.70
26505;DHT22;19493;48.042;7.584;2023-03-14T13:47:24;10.80;87.40
26505;DHT22;19493;48.042;7.584;2023-03-14T13:49:50;10.80;86.90
26505;DHT22;19493;48.042;7.584;2023-03-14T13:52:28;10.80;87.90
26505;DHT22;19493;48.042;7.584;2023-03-14T13:54:56;10.80;87.70
26505;DHT22;19493;48.042;7.584;2023-03-14T13:57:22;10.70;86.60
26505;DHT22;19493;48.042;7.584;2023-03-14T14:00:07;10.60;86.10
26505;DHT22;19493;48.042;7.584;2023-03-14T14:02:36;10.50;85.70
26505;DHT22;19493;48.042;7.584;2023-03-14T14:05:03;10.40;86.20
26505;DHT22;19493;48.042;7.584;2023-03-14T14:07:29;10.30;88.90
26505;DHT22;19493;48.042;7.584;2023-03-14T14:09:55;10.20;90.40
26505;DHT22;19493;48.042;7.584;2023-03-14T14:12:35;10.10;90.50
26505;DHT22;19493;48.042;7.584;2023-03-14T14:15:09;10.20;90.50
26505;DHT22;19493;48.042;7.584;2023-03-14T14:17:41;10.40;90.40
26505;DHT22;19493;48.042;7.584;2023-03-14T14:20:22;10.70;89.60
26505;DHT22;19493;48.042;7.584;2023-03-14T14:22:50;10.90;88.50
26505;DHT22;19493;48.042;7.584;2023-03-14T14:25:16;11.20;88.70
26505;DHT22;19493;48.042;7.584;2023-03-14T14:27:46;11.40;88.20
26505;DHT22;19493;48.042;7.584;2023-03-14T14:32:48;11.80;85.80
26505;DHT22;19493;48.042;7.584;2023-03-14T14:35:31;12.20;83.90
26505;DHT22;19493;48.042;7.584;2023-03-14T14:37:59;12.60;83.00
26505;DHT22;19493;48.042;7.584;2023-03-14T14:40:27;13.50;81.80
26505;DHT22;19493;48.042;7.584;2023-03-14T14:43:02;15.60;78.00
26505;DHT22;19493;48.042;7.584;2023-03-14T14:45:28;18.60;70.30
26505;DHT22;19493;48.042;7.584;2023-03-14T14:48:04;20.30;63.90
26505;DHT22;19493;48.042;7.584;2023-03-14T14:50:34;22.50;56.70
26505;DHT22;19493;48.042;7.584;2023-03-14T14:53:02;24.50;51.00
26505;DHT22;19493;48.042;7.584;2023-03-14T14:55:33;25.50;45.40
26505;DHT22;19493;48.042;7.584;2023-03-14T14:58:17;25.00;43.50
26505;DHT22;19493;48.042;7.584;2023-03-14T15:03:15;23.10;44.00
26505;DHT22;19493;48.042;7.584;2023-03-14T15:05:41;22.00;44.60
26505;DHT22;19493;48.042;7.584;2023-03-14T15:08:10;21.80;46.20
26505;DHT22;19493;48.042;7.584;2023-03-14T15:10:36;20.90;46.10
26505;DHT22;19493;48.042;7.584;2023-03-14T15:13:02;21.50;45.70
26505;DHT22;19493;48.042;7.584;2023-03-14T15:15:28;23.10;45.00
26505;DHT22;19493;48.042;7.584;2023-03-14T15:17:53;23.70;44.50
26505;DHT22;19493;48.042;7.584;2023-03-14T15:20:19;22.30;44.30
26505;DHT22;19493;48.042;7.584;2023-03-14T15:22:49;21.40;47.00
26505;DHT22;19493;48.042;7.584;2023-03-14T15:25:14;20.50;48.50
26505;DHT22;19493;48.042;7.584;2023-03-14T15:27:40;20.30;49.60
26505;DHT22;19493;48.042;7.584;2023-03-14T15:30:14;19.90;50.20
26505;DHT22;19493;48.042;7.584;2023-03-14T15:32:39;19.10;51.00
26505;DHT22;19493;48.042;7.584;2023-03-14T15:35:06;19.00;50.80
26505;DHT22;19493;48.042;7.584;2023-03-14T15:37:32;17.70;53.10
26505;DHT22;19493;48.042;7.584;2023-03-14T15:39:58;16.20;56.60
26505;DHT22;19493;48.042;7.584;2023-03-14T15:42:24;14.50;60.20
26505;DHT22;19493;48.042;7.584;2023-03-14T15:44:49;13.30;64.60
26505;DHT22;19493;48.042;7.584;2023-03-14T15:47:15;12.70;66.50
26505;DHT22;19493;48.042;7.584;2023-03-14T15:49:40;12.50;67.50
26505;DHT22;19493;48.042;7.584;2023-03-14T15:52:06;12.50;66.00
26505;DHT22;19493;48.042;7.584;2023-03-14T15:54:34;12.50;66.20
26505;DHT22;19493;48.042;7.584;2023-03-14T15:56:59;12.10;67.40
26505;DHT22;19493;48.042;7.584;2023-03-14T15:59:25;11.80;68.10
26505;DHT22;19493;48.042;7.584;2023-03-14T16:01:51;11.50;69.60
26505;DHT22;19493;48.042;7.584;2023-03-14T16:04:17;11.30;71.30
26505;DHT22;19493;48.042;7.584;2023-03-14T16:06:43;11.20;73.90
26505;DHT22;19493;48.042;7.584;2023-03-14T16:09:10;11.10;75.50
26505;DHT22;19493;48.042;7.584;2023-03-14T16:11:36;10.90;78.90
26505;DHT22;19493;48.042;7.584;2023-03-14T16:14:01;10.60;82.70
26505;DHT22;19493;48.042;7.584;2023-03-14T16:16:27;10.40;85.80
26505;DHT22;19493;48.042;7.584;2023-03-14T16:18:52;10.30;86.60
26505;DHT22;19493;48.042;7.584;2023-03-14T16:21:19;10.20;88.70
26505;DHT22;19493;48.042;7.584;2023-03-14T16:23:45;10.10;87.40
26505;DHT22;19493;48.042;7.584;2023-03-14T16:26:20;10.20;87.90
26505;DHT22;19493;48.042;7.584;2023-03-14T16:28:46;10.20;89.60
26505;DHT22;19493;48.042;7.584;2023-03-14T16:31:15;10.10;90.50
26505;DHT22;19493;48.042;7.584;2023-03-14T16:33:41;10.20;91.50
26505;DHT22;19493;48.042;7.584;2023-03-14T16:36:09;10.20;92.20
26505;DHT22;19493;48.042;7.584;2023-03-14T16:38:37;10.10;92.70
26505;DHT22;19493;48.042;7.584;2023-03-14T16:41:06;9.90;93.30
26505;DHT22;19493;48.042;7.584;2023-03-14T16:43:31;9.90;94.30
26505;DHT22;19493;48.042;7.584;2023-03-14T16:45:58;9.90;95.00
26505;DHT22;19493;48.042;7.584;2023-03-14T16:48:24;9.90;94.50
26505;DHT22;19493;48.042;7.584;2023-03-14T16:50:50;10.00;94.00